Castle Point, New York
Current Conditions -  °F | °C
As of 6:53 PM on Saturday 20 Dec 2014 (Local Time) from KPOU Reporting Station
Overcast Overcast  
Wind Chill: 30°   Ceiling: 2500
Heat Index: 30°   Visibility: 10mi
Dew Point: 20°   Wind: 0mph
Humidity: 66%   Direction: NA
Pressure: 30.3"   Gusts: NA
Location:  41.55°N, 73.96°W
Report Text: KPOU 202353Z 00000KT 10SM BKN025 OVC033 M01/M07 A3030 RMK AO2 SLP260 T10111067 11006 21011 53010
Loading
Personal Weather Stations






























Interactive Weather Map New forecast layout! Learn more

10-Day Weather Forecast

Advertisements
Track Severe Weather on mobile